sensor_id;sensor_type;location;lat;lon;timestamp;temperature;humidity
48579;DHT22;34357;51.948;6.132;2023-12-14T00:02:08;6.10;94.20
48579;DHT22;34357;51.948;6.132;2023-12-14T00:04:33;6.10;94.20
48579;DHT22;34357;51.948;6.132;2023-12-14T00:06:59;6.10;94.20
48579;DHT22;34357;51.948;6.132;2023-12-14T00:09:25;6.00;94.10
48579;DHT22;34357;51.948;6.132;2023-12-14T00:11:51;6.00;94.20
48579;DHT22;34357;51.948;6.132;2023-12-14T00:14:16;6.00;94.20
48579;DHT22;34357;51.948;6.132;2023-12-14T00:16:43;6.00;94.30
48579;DHT22;34357;51.948;6.132;2023-12-14T00:19:09;6.00;94.30
48579;DHT22;34357;51.948;6.132;2023-12-14T00:21:34;5.90;94.20
48579;DHT22;34357;51.948;6.132;2023-12-14T00:24:00;5.90;94.30
48579;DHT22;34357;51.948;6.132;2023-12-14T00:26:26;5.90;94.40
48579;DHT22;34357;51.948;6.132;2023-12-14T00:28:52;5.90;94.40
48579;DHT22;34357;51.948;6.132;2023-12-14T00:31:18;5.90;94.40
48579;DHT22;34357;51.948;6.132;2023-12-14T00:33:44;5.90;94.40
48579;DHT22;34357;51.948;6.132;2023-12-14T00:36:14;5.80;94.50
48579;DHT22;34357;51.948;6.132;2023-12-14T00:38:42;5.80;94.50
48579;DHT22;34357;51.948;6.132;2023-12-14T00:41:08;5.80;94.50
48579;DHT22;34357;51.948;6.132;2023-12-14T00:43:34;5.80;94.60
48579;DHT22;34357;51.948;6.132;2023-12-14T00:45:59;5.80;94.50
48579;DHT22;34357;51.948;6.132;2023-12-14T00:48:25;5.70;94.50
48579;DHT22;34357;51.948;6.132;2023-12-14T00:50:51;5.80;94.60
48579;DHT22;34357;51.948;6.132;2023-12-14T00:53:16;5.80;94.60
48579;DHT22;34357;51.948;6.132;2023-12-14T00:55:42;5.80;94.60
48579;DHT22;34357;51.948;6.132;2023-12-14T00:58:08;5.80;94.60
48579;DHT22;34357;51.948;6.132;2023-12-14T01:00:33;5.80;94.50
48579;DHT22;34357;51.948;6.132;2023-12-14T01:02:59;5.80;94.50
48579;DHT22;34357;51.948;6.132;2023-12-14T01:05:25;5.70;94.50
48579;DHT22;34357;51.948;6.132;2023-12-14T01:07:51;5.80;94.50
48579;DHT22;34357;51.948;6.132;2023-12-14T01:10:16;5.80;94.40
48579;DHT22;34357;51.948;6.132;2023-12-14T01:12:42;5.80;94.40
48579;DHT22;34357;51.948;6.132;2023-12-14T01:15:08;5.80;94.40
48579;DHT22;34357;51.948;6.132;2023-12-14T01:17:34;5.80;94.30
48579;DHT22;34357;51.948;6.132;2023-12-14T01:20:06;5.70;94.30
48579;DHT22;34357;51.948;6.132;2023-12-14T01:22:33;5.70;94.30
48579;DHT22;34357;51.948;6.132;2023-12-14T01:24:59;5.70;94.30
48579;DHT22;34357;51.948;6.132;2023-12-14T01:27:25;5.60;94.30
48579;DHT22;34357;51.948;6.132;2023-12-14T01:29:51;5.70;94.40
48579;DHT22;34357;51.948;6.132;2023-12-14T01:32:16;5.70;94.40
48579;DHT22;34357;51.948;6.132;2023-12-14T01:34:42;5.70;94.30
48579;DHT22;34357;51.948;6.132;2023-12-14T01:37:08;5.70;94.30
48579;DHT22;34357;51.948;6.132;2023-12-14T01:39:33;5.70;94.20
48579;DHT22;34357;51.948;6.132;2023-12-14T01:41:59;5.60;94.20
48579;DHT22;34357;51.948;6.132;2023-12-14T01:44:25;5.60;94.10
48579;DHT22;34357;51.948;6.132;2023-12-14T01:46:51;5.60;94.10
48579;DHT22;34357;51.948;6.132;2023-12-14T01:49:16;5.60;94.10
48579;DHT22;34357;51.948;6.132;2023-12-14T01:51:42;5.60;94.10
48579;DHT22;34357;51.948;6.132;2023-12-14T01:54:08;5.60;94.00
48579;DHT22;34357;51.948;6.132;2023-12-14T01:56:33;5.60;94.00
48579;DHT22;34357;51.948;6.132;2023-12-14T01:58:59;5.60;94.00
48579;DHT22;34357;51.948;6.132;2023-12-14T02:01:29;5.60;93.90
48579;DHT22;34357;51.948;6.132;2023-12-14T02:04:00;5.60;93.90
48579;DHT22;34357;51.948;6.132;2023-12-14T02:06:26;5.60;93.80
48579;DHT22;34357;51.948;6.132;2023-12-14T02:08:52;5.50;93.80
48579;DHT22;34357;51.948;6.132;2023-12-14T02:11:18;5.50;93.70
48579;DHT22;34357;51.948;6.132;2023-12-14T02:13:44;5.40;93.70
48579;DHT22;34357;51.948;6.132;2023-12-14T02:16:10;5.50;93.70
48579;DHT22;34357;51.948;6.132;2023-12-14T02:18:36;5.50;93.70
48579;DHT22;34357;51.948;6.132;2023-12-14T02:21:02;5.40;93.60
48579;DHT22;34357;51.948;6.132;2023-12-14T02:23:28;5.40;93.60
48579;DHT22;34357;51.948;6.132;2023-12-14T02:25:54;5.40;93.60
48579;DHT22;34357;51.948;6.132;2023-12-14T02:28:19;5.40;93.50
48579;DHT22;34357;51.948;6.132;2023-12-14T02:30:45;5.40;93.50
48579;DHT22;34357;51.948;6.132;2023-12-14T02:33:11;5.40;93.50
48579;DHT22;34357;51.948;6.132;2023-12-14T02:35:37;5.40;93.50
48579;DHT22;34357;51.948;6.132;2023-12-14T02:38:02;5.40;93.50
48579;DHT22;34357;51.948;6.132;2023-12-14T02:40:28;5.40;93.60
48579;DHT22;34357;51.948;6.132;2023-12-14T02:42:54;5.40;93.50
48579;DHT22;34357;51.948;6.132;2023-12-14T02:45:19;5.40;93.50
48579;DHT22;34357;51.948;6.132;2023-12-14T02:47:45;5.40;93.40
48579;DHT22;34357;51.948;6.132;2023-12-14T02:50:13;5.40;93.40
48579;DHT22;34357;51.948;6.132;2023-12-14T02:52:39;5.40;93.30
48579;DHT22;34357;51.948;6.132;2023-12-14T02:55:05;5.40;93.30
48579;DHT22;34357;51.948;6.132;2023-12-14T02:57:30;5.40;93.30
48579;DHT22;34357;51.948;6.132;2023-12-14T02:59:56;5.40;93.30
48579;DHT22;34357;51.948;6.132;2023-12-14T03:02:22;5.40;93.30
48579;DHT22;34357;51.948;6.132;2023-12-14T03:04:47;5.40;93.30
48579;DHT22;34357;51.948;6.132;2023-12-14T03:07:13;5.40;93.30
48579;DHT22;34357;51.948;6.132;2023-12-14T03:09:40;5.40;93.40
48579;DHT22;34357;51.948;6.132;2023-12-14T03:12:10;5.40;93.30
48579;DHT22;34357;51.948;6.132;2023-12-14T03:14:36;5.40;93.30
48579;DHT22;34357;51.948;6.132;2023-12-14T03:17:02;5.40;93.30
48579;DHT22;34357;51.948;6.132;2023-12-14T03:19:28;5.40;93.30
48579;DHT22;34357;51.948;6.132;2023-12-14T03:21:54;5.40;93.30
48579;DHT22;34357;51.948;6.132;2023-12-14T03:24:20;5.30;93.20
48579;DHT22;34357;51.948;6.132;2023-12-14T03:26:46;5.40;93.30
48579;DHT22;34357;51.948;6.132;2023-12-14T03:29:11;5.40;93.20
48579;DHT22;34357;51.948;6.132;2023-12-14T03:31:37;5.30;93.20
48579;DHT22;34357;51.948;6.132;2023-12-14T03:34:05;5.30;93.20
48579;DHT22;34357;51.948;6.132;2023-12-14T03:36:31;5.40;93.10
48579;DHT22;34357;51.948;6.132;2023-12-14T03:38:56;5.40;93.10
48579;DHT22;34357;51.948;6.132;2023-12-14T03:41:22;5.30;93.00
48579;DHT22;34357;51.948;6.132;2023-12-14T03:43:48;5.30;93.00
48579;DHT22;34357;51.948;6.132;2023-12-14T03:46:13;5.30;93.00
48579;DHT22;34357;51.948;6.132;2023-12-14T03:48:39;5.30;93.00
48579;DHT22;34357;51.948;6.132;2023-12-14T03:51:05;5.30;93.00
48579;DHT22;34357;51.948;6.132;2023-12-14T03:53:31;5.30;93.00
48579;DHT22;34357;51.948;6.132;2023-12-14T03:55:58;5.30;92.90
48579;DHT22;34357;51.948;6.132;2023-12-14T03:58:24;5.30;92.90
48579;DHT22;34357;51.948;6.132;2023-12-14T04:00:50;5.40;92.90
48579;DHT22;34357;51.948;6.132;2023-12-14T04:03:15;5.40;93.00
48579;DHT22;34357;51.948;6.132;2023-12-14T04:05:41;5.40;92.90
48579;DHT22;34357;51.948;6.132;2023-12-14T04:08:07;5.30;92.90
48579;DHT22;34357;51.948;6.132;2023-12-14T04:10:32;5.30;92.90
48579;DHT22;34357;51.948;6.132;2023-12-14T04:12:58;5.30;92.80
48579;DHT22;34357;51.948;6.132;2023-12-14T04:15:24;5.30;92.80
48579;DHT22;34357;51.948;6.132;2023-12-14T04:17:50;5.30;92.80
48579;DHT22;34357;51.948;6.132;2023-12-14T04:20:16;5.30;92.70
48579;DHT22;34357;51.948;6.132;2023-12-14T04:22:43;5.30;92.80
48579;DHT22;34357;51.948;6.132;2023-12-14T04:25:10;5.30;92.70
48579;DHT22;34357;51.948;6.132;2023-12-14T04:27:36;5.30;92.80
48579;DHT22;34357;51.948;6.132;2023-12-14T04:30:02;5.30;92.50
48579;DHT22;34357;51.948;6.132;2023-12-14T04:32:30;5.20;92.50
48579;DHT22;34357;51.948;6.132;2023-12-14T04:34:55;5.20;92.50
48579;DHT22;34357;51.948;6.132;2023-12-14T04:37:21;5.20;92.50
48579;DHT22;34357;51.948;6.132;2023-12-14T04:39:47;5.20;92.50
48579;DHT22;34357;51.948;6.132;2023-12-14T04:42:13;5.20;92.40
48579;DHT22;34357;51.948;6.132;2023-12-14T04:44:39;5.20;92.40
48579;DHT22;34357;51.948;6.132;2023-12-14T04:47:05;5.20;92.40
48579;DHT22;34357;51.948;6.132;2023-12-14T04:49:31;5.10;92.30
48579;DHT22;34357;51.948;6.132;2023-12-14T04:51:57;5.20;92.30
48579;DHT22;34357;51.948;6.132;2023-12-14T04:54:22;5.20;92.20
48579;DHT22;34357;51.948;6.132;2023-12-14T04:56:48;5.20;92.10
48579;DHT22;34357;51.948;6.132;2023-12-14T04:59:14;5.20;92.10
48579;DHT22;34357;51.948;6.132;2023-12-14T05:01:39;5.20;92.00
48579;DHT22;34357;51.948;6.132;2023-12-14T05:04:05;5.20;92.00
48579;DHT22;34357;51.948;6.132;2023-12-14T05:06:31;5.20;92.10
48579;DHT22;34357;51.948;6.132;2023-12-14T05:08:59;5.20;92.10
48579;DHT22;34357;51.948;6.132;2023-12-14T05:11:27;5.20;92.20
48579;DHT22;34357;51.948;6.132;2023-12-14T05:13:53;5.20;92.20
48579;DHT22;34357;51.948;6.132;2023-12-14T05:16:19;5.10;92.30
48579;DHT22;34357;51.948;6.132;2023-12-14T05:18:45;5.20;92.40
48579;DHT22;34357;51.948;6.132;2023-12-14T05:21:16;5.10;92.40
48579;DHT22;34357;51.948;6.132;2023-12-14T05:23:43;5.20;92.40
48579;DHT22;34357;51.948;6.132;2023-12-14T05:26:08;5.10;92.50
48579;DHT22;34357;51.948;6.132;2023-12-14T05:28:35;5.20;92.60
48579;DHT22;34357;51.948;6.132;2023-12-14T05:31:01;5.10;92.60
48579;DHT22;34357;51.948;6.132;2023-12-14T05:33:27;5.20;92.70
48579;DHT22;34357;51.948;6.132;2023-12-14T05:35:52;5.10;92.60
48579;DHT22;34357;51.948;6.132;2023-12-14T05:38:18;5.10;92.70
48579;DHT22;34357;51.948;6.132;2023-12-14T05:40:44;5.10;92.60
48579;DHT22;34357;51.948;6.132;2023-12-14T05:43:10;5.10;92.60
48579;DHT22;34357;51.948;6.132;2023-12-14T05:45:36;5.10;92.60
48579;DHT22;34357;51.948;6.132;2023-12-14T05:48:02;5.10;92.60
48579;DHT22;34357;51.948;6.132;2023-12-14T05:50:31;5.10;92.70
48579;DHT22;34357;51.948;6.132;2023-12-14T05:52:56;5.10;92.70
48579;DHT22;34357;51.948;6.132;2023-12-14T05:55:22;5.20;92.70
48579;DHT22;34357;51.948;6.132;2023-12-14T05:57:49;5.10;92.70
48579;DHT22;34357;51.948;6.132;2023-12-14T06:00:15;5.20;92.70
48579;DHT22;34357;51.948;6.132;2023-12-14T06:02:41;5.10;92.70
48579;DHT22;34357;51.948;6.132;2023-12-14T06:05:08;5.10;92.70
48579;DHT22;34357;51.948;6.132;2023-12-14T06:07:33;5.10;92.70
48579;DHT22;34357;51.948;6.132;2023-12-14T06:09:59;5.10;92.60
48579;DHT22;34357;51.948;6.132;2023-12-14T06:12:27;5.10;92.60
48579;DHT22;34357;51.948;6.132;2023-12-14T06:14:52;5.10;92.70
48579;DHT22;34357;51.948;6.132;2023-12-14T06:17:18;5.10;92.70
48579;DHT22;34357;51.948;6.132;2023-12-14T06:19:44;5.10;92.70
48579;DHT22;34357;51.948;6.132;2023-12-14T06:22:10;5.00;92.60
48579;DHT22;34357;51.948;6.132;2023-12-14T06:24:35;5.00;92.60
48579;DHT22;34357;51.948;6.132;2023-12-14T06:27:01;5.00;92.70
48579;DHT22;34357;51.948;6.132;2023-12-14T06:29:27;5.00;92.60
48579;DHT22;34357;51.948;6.132;2023-12-14T06:31:56;5.00;92.50
48579;DHT22;34357;51.948;6.132;2023-12-14T06:34:22;5.00;92.50
48579;DHT22;34357;51.948;6.132;2023-12-14T06:36:49;5.00;92.50
48579;DHT22;34357;51.948;6.132;2023-12-14T06:39:15;4.90;92.40
48579;DHT22;34357;51.948;6.132;2023-12-14T06:41:41;5.00;92.30
48579;DHT22;34357;51.948;6.132;2023-12-14T06:44:07;5.00;92.20
48579;DHT22;34357;51.948;6.132;2023-12-14T06:46:41;5.00;92.10
48579;DHT22;34357;51.948;6.132;2023-12-14T06:49:10;4.90;92.20
48579;DHT22;34357;51.948;6.132;2023-12-14T06:51:48;4.90;92.20
48579;DHT22;34357;51.948;6.132;2023-12-14T06:54:17;4.90;92.10
48579;DHT22;34357;51.948;6.132;2023-12-14T06:56:43;4.90;92.10
48579;DHT22;34357;51.948;6.132;2023-12-14T06:59:09;4.90;92.00
48579;DHT22;34357;51.948;6.132;2023-12-14T07:01:34;4.90;92.00
48579;DHT22;34357;51.948;6.132;2023-12-14T07:04:00;4.90;91.90
48579;DHT22;34357;51.948;6.132;2023-12-14T07:06:28;4.90;91.90
48579;DHT22;34357;51.948;6.132;2023-12-14T07:08:54;4.80;91.90
48579;DHT22;34357;51.948;6.132;2023-12-14T07:11:19;4.90;91.80
48579;DHT22;34357;51.948;6.132;2023-12-14T07:13:45;4.90;91.80
48579;DHT22;34357;51.948;6.132;2023-12-14T07:16:11;4.90;91.80
48579;DHT22;34357;51.948;6.132;2023-12-14T07:18:38;4.90;91.80
48579;DHT22;34357;51.948;6.132;2023-12-14T07:21:04;4.90;91.90
48579;DHT22;34357;51.948;6.132;2023-12-14T07:23:30;4.90;92.00
48579;DHT22;34357;51.948;6.132;2023-12-14T07:25:56;4.90;92.20
48579;DHT22;34357;51.948;6.132;2023-12-14T07:28:22;4.90;92.30
48579;DHT22;34357;51.948;6.132;2023-12-14T07:30:48;4.90;92.30
48579;DHT22;34357;51.948;6.132;2023-12-14T07:33:15;4.90;92.40
48579;DHT22;34357;51.948;6.132;2023-12-14T07:35:42;4.80;92.50
48579;DHT22;34357;51.948;6.132;2023-12-14T07:38:09;4.90;92.70
48579;DHT22;34357;51.948;6.132;2023-12-14T07:40:35;4.80;92.70
48579;DHT22;34357;51.948;6.132;2023-12-14T07:43:00;4.80;92.80
48579;DHT22;34357;51.948;6.132;2023-12-14T07:45:27;4.90;92.90
48579;DHT22;34357;51.948;6.132;2023-12-14T07:47:53;4.90;92.80
48579;DHT22;34357;51.948;6.132;2023-12-14T07:50:19;4.80;92.80
48579;DHT22;34357;51.948;6.132;2023-12-14T07:52:45;4.90;92.80
48579;DHT22;34357;51.948;6.132;2023-12-14T07:55:11;4.80;92.80
48579;DHT22;34357;51.948;6.132;2023-12-14T07:57:39;4.80;92.80
48579;DHT22;34357;51.948;6.132;2023-12-14T08:00:06;4.80;92.80
48579;DHT22;34357;51.948;6.132;2023-12-14T08:02:34;4.80;92.80
48579;DHT22;34357;51.948;6.132;2023-12-14T08:05:00;4.80;92.80
48579;DHT22;34357;51.948;6.132;2023-12-14T08:07:25;4.80;92.70
48579;DHT22;34357;51.948;6.132;2023-12-14T08:09:57;4.80;92.60
48579;DHT22;34357;51.948;6.132;2023-12-14T08:12:23;4.70;92.70
48579;DHT22;34357;51.948;6.132;2023-12-14T08:14:49;4.70;92.60
48579;DHT22;34357;51.948;6.132;2023-12-14T08:17:15;4.70;92.70
48579;DHT22;34357;51.948;6.132;2023-12-14T08:19:42;4.70;92.60
48579;DHT22;34357;51.948;6.132;2023-12-14T08:22:08;4.70;92.60
48579;DHT22;34357;51.948;6.132;2023-12-14T08:24:37;4.70;92.60
48579;DHT22;34357;51.948;6.132;2023-12-14T08:27:19;4.70;92.50
48579;DHT22;34357;51.948;6.132;2023-12-14T08:29:53;4.80;92.50
48579;DHT22;34357;51.948;6.132;2023-12-14T08:33:01;4.70;92.60
48579;DHT22;34357;51.948;6.132;2023-12-14T08:35:33;4.80;92.50
48579;DHT22;34357;51.948;6.132;2023-12-14T08:38:35;4.80;92.50
48579;DHT22;34357;51.948;6.132;2023-12-14T08:41:43;4.80;92.60
48579;DHT22;34357;51.948;6.132;2023-12-14T08:44:10;4.80;92.50
48579;DHT22;34357;51.948;6.132;2023-12-14T08:46:44;4.90;92.50
48579;DHT22;34357;51.948;6.132;2023-12-14T08:49:11;4.80;92.40
48579;DHT22;34357;51.948;6.132;2023-12-14T08:51:37;4.80;92.30
48579;DHT22;34357;51.948;6.132;2023-12-14T08:54:04;4.80;92.20
48579;DHT22;34357;51.948;6.132;2023-12-14T08:56:30;4.80;92.10
48579;DHT22;34357;51.948;6.132;2023-12-14T08:58:56;4.80;92.10
48579;DHT22;34357;51.948;6.132;2023-12-14T09:01:23;4.80;92.10
48579;DHT22;34357;51.948;6.132;2023-12-14T09:03:49;4.80;92.00
48579;DHT22;34357;51.948;6.132;2023-12-14T09:06:18;4.80;92.00
48579;DHT22;34357;51.948;6.132;2023-12-14T09:08:44;4.80;92.10
48579;DHT22;34357;51.948;6.132;2023-12-14T09:11:11;4.80;92.00
48579;DHT22;34357;51.948;6.132;2023-12-14T09:13:37;4.80;92.00
48579;DHT22;34357;51.948;6.132;2023-12-14T09:16:03;4.90;92.00
48579;DHT22;34357;51.948;6.132;2023-12-14T09:18:28;4.80;91.70
48579;DHT22;34357;51.948;6.132;2023-12-14T09:20:54;4.80;91.70
48579;DHT22;34357;51.948;6.132;2023-12-14T09:23:20;4.80;91.60
48579;DHT22;34357;51.948;6.132;2023-12-14T09:25:46;4.80;91.60
48579;DHT22;34357;51.948;6.132;2023-12-14T09:28:11;4.80;91.60
48579;DHT22;34357;51.948;6.132;2023-12-14T09:30:37;4.80;91.60
48579;DHT22;34357;51.948;6.132;2023-12-14T09:33:03;4.80;91.50
48579;DHT22;34357;51.948;6.132;2023-12-14T09:35:29;4.90;91.50
48579;DHT22;34357;51.948;6.132;2023-12-14T09:37:55;4.80;91.40
48579;DHT22;34357;51.948;6.132;2023-12-14T09:40:22;4.90;91.50
48579;DHT22;34357;51.948;6.132;2023-12-14T09:42:48;4.90;91.40
48579;DHT22;34357;51.948;6.132;2023-12-14T09:45:16;4.90;91.40
48579;DHT22;34357;51.948;6.132;2023-12-14T09:47:44;4.90;91.40
48579;DHT22;34357;51.948;6.132;2023-12-14T09:50:10;4.90;91.20
48579;DHT22;34357;51.948;6.132;2023-12-14T09:52:36;4.90;91.20
48579;DHT22;34357;51.948;6.132;2023-12-14T09:55:01;4.90;91.10
48579;DHT22;34357;51.948;6.132;2023-12-14T09:57:29;4.90;91.20
48579;DHT22;34357;51.948;6.132;2023-12-14T09:59:56;4.90;91.10
48579;DHT22;34357;51.948;6.132;2023-12-14T10:02:26;4.90;91.10
48579;DHT22;34357;51.948;6.132;2023-12-14T10:04:52;4.90;91.00
48579;DHT22;34357;51.948;6.132;2023-12-14T10:07:20;4.90;91.00
48579;DHT22;34357;51.948;6.132;2023-12-14T10:09:49;4.90;90.90
48579;DHT22;34357;51.948;6.132;2023-12-14T10:12:17;4.90;90.70
48579;DHT22;34357;51.948;6.132;2023-12-14T10:14:43;4.90;90.80
48579;DHT22;34357;51.948;6.132;2023-12-14T10:17:18;4.90;90.60
48579;DHT22;34357;51.948;6.132;2023-12-14T10:19:48;4.90;90.60
48579;DHT22;34357;51.948;6.132;2023-12-14T10:22:17;4.90;90.70
48579;DHT22;34357;51.948;6.132;2023-12-14T10:24:47;4.90;90.90
48579;DHT22;34357;51.948;6.132;2023-12-14T10:27:14;4.90;91.00
48579;DHT22;34357;51.948;6.132;2023-12-14T10:29:44;4.90;91.00
48579;DHT22;34357;51.948;6.132;2023-12-14T10:32:11;4.90;91.10
48579;DHT22;34357;51.948;6.132;2023-12-14T10:34:37;4.80;91.00
48579;DHT22;34357;51.948;6.132;2023-12-14T10:37:05;4.90;91.20
48579;DHT22;34357;51.948;6.132;2023-12-14T10:39:35;4.90;91.20
48579;DHT22;34357;51.948;6.132;2023-12-14T10:42:04;4.90;91.30
48579;DHT22;34357;51.948;6.132;2023-12-14T10:44:36;4.90;91.20
48579;DHT22;34357;51.948;6.132;2023-12-14T10:47:03;4.90;91.30
48579;DHT22;34357;51.948;6.132;2023-12-14T10:49:32;4.90;91.30
48579;DHT22;34357;51.948;6.132;2023-12-14T10:52:00;4.90;91.30
48579;DHT22;34357;51.948;6.132;2023-12-14T10:54:32;4.90;91.40
48579;DHT22;34357;51.948;6.132;2023-12-14T10:57:01;5.00;91.50
48579;DHT22;34357;51.948;6.132;2023-12-14T10:59:31;5.00;91.40
48579;DHT22;34357;51.948;6.132;2023-12-14T11:01:57;4.90;91.40
48579;DHT22;34357;51.948;6.132;2023-12-14T11:04:27;4.90;91.50
48579;DHT22;34357;51.948;6.132;2023-12-14T11:06:57;5.00;91.50
48579;DHT22;34357;51.948;6.132;2023-12-14T11:09:23;4.90;91.30
48579;DHT22;34357;51.948;6.132;2023-12-14T11:14:19;5.10;91.20
48579;DHT22;34357;51.948;6.132;2023-12-14T11:16:47;5.00;91.10
48579;DHT22;34357;51.948;6.132;2023-12-14T11:19:33;5.10;91.10
48579;DHT22;34357;51.948;6.132;2023-12-14T11:22:11;5.10;91.00
48579;DHT22;34357;51.948;6.132;2023-12-14T11:24:45;5.10;91.20
48579;DHT22;34357;51.948;6.132;2023-12-14T11:27:15;5.10;91.00
48579;DHT22;34357;51.948;6.132;2023-12-14T11:29:45;5.10;91.00
48579;DHT22;34357;51.948;6.132;2023-12-14T11:32:11;5.20;91.00
48579;DHT22;34357;51.948;6.132;2023-12-14T11:34:39;5.30;91.00
48579;DHT22;34357;51.948;6.132;2023-12-14T11:37:05;5.10;90.80
48579;DHT22;34357;51.948;6.132;2023-12-14T11:39:31;5.20;90.70
48579;DHT22;34357;51.948;6.132;2023-12-14T11:42:01;5.30;90.70
48579;DHT22;34357;51.948;6.132;2023-12-14T11:44:28;5.20;90.60
48579;DHT22;34357;51.948;6.132;2023-12-14T11:46:53;5.20;90.70
48579;DHT22;34357;51.948;6.132;2023-12-14T11:49:19;5.20;90.90
48579;DHT22;34357;51.948;6.132;2023-12-14T11:51:46;5.20;91.00
48579;DHT22;34357;51.948;6.132;2023-12-14T11:54:13;5.20;90.90
48579;DHT22;34357;51.948;6.132;2023-12-14T11:56:46;5.20;90.80
48579;DHT22;34357;51.948;6.132;2023-12-14T11:59:12;5.20;90.90
48579;DHT22;34357;51.948;6.132;2023-12-14T12:01:38;5.20;91.10
48579;DHT22;34357;51.948;6.132;2023-12-14T12:04:10;5.30;91.00
48579;DHT22;34357;51.948;6.132;2023-12-14T12:06:37;5.40;91.10
48579;DHT22;34357;51.948;6.132;2023-12-14T12:09:03;5.30;91.00
48579;DHT22;34357;51.948;6.132;2023-12-14T12:11:34;5.30;90.90
48579;DHT22;34357;51.948;6.132;2023-12-14T12:14:02;5.30;90.90
48579;DHT22;34357;51.948;6.132;2023-12-14T12:16:28;5.30;90.70
48579;DHT22;34357;51.948;6.132;2023-12-14T12:18:53;5.30;90.70
48579;DHT22;34357;51.948;6.132;2023-12-14T12:21:19;5.30;90.90
48579;DHT22;34357;51.948;6.132;2023-12-14T12:23:48;5.20;90.70
48579;DHT22;34357;51.948;6.132;2023-12-14T12:26:15;5.30;90.80
48579;DHT22;34357;51.948;6.132;2023-12-14T12:28:41;5.30;90.80
48579;DHT22;34357;51.948;6.132;2023-12-14T12:31:06;5.30;90.90
48579;DHT22;34357;51.948;6.132;2023-12-14T12:33:33;5.30;90.90
48579;DHT22;34357;51.948;6.132;2023-12-14T12:36:03;5.40;91.00
48579;DHT22;34357;51.948;6.132;2023-12-14T12:38:32;5.40;90.90
48579;DHT22;34357;51.948;6.132;2023-12-14T12:40:59;5.30;90.90
48579;DHT22;34357;51.948;6.132;2023-12-14T12:43:26;5.30;91.00
48579;DHT22;34357;51.948;6.132;2023-12-14T12:45:51;5.30;90.70
48579;DHT22;34357;51.948;6.132;2023-12-14T12:48:17;5.30;90.70
48579;DHT22;34357;51.948;6.132;2023-12-14T12:50:43;5.40;90.50
48579;DHT22;34357;51.948;6.132;2023-12-14T12:53:09;5.40;90.50
48579;DHT22;34357;51.948;6.132;2023-12-14T12:55:35;5.50;90.40
48579;DHT22;34357;51.948;6.132;2023-12-14T12:58:01;5.40;90.10
48579;DHT22;34357;51.948;6.132;2023-12-14T13:00:37;5.50;90.00
48579;DHT22;34357;51.948;6.132;2023-12-14T13:03:03;5.40;89.90
48579;DHT22;34357;51.948;6.132;2023-12-14T13:05:29;5.40;90.00
48579;DHT22;34357;51.948;6.132;2023-12-14T13:07:55;5.50;89.80
48579;DHT22;34357;51.948;6.132;2023-12-14T13:10:23;5.60;89.80
48579;DHT22;34357;51.948;6.132;2023-12-14T13:12:53;5.60;89.50
48579;DHT22;34357;51.948;6.132;2023-12-14T13:15:19;5.60;89.40
48579;DHT22;34357;51.948;6.132;2023-12-14T13:17:44;5.70;89.00
48579;DHT22;34357;51.948;6.132;2023-12-14T13:20:10;5.60;88.60
48579;DHT22;34357;51.948;6.132;2023-12-14T13:22:36;5.50;88.30
48579;DHT22;34357;51.948;6.132;2023-12-14T13:25:02;5.60;88.50
48579;DHT22;34357;51.948;6.132;2023-12-14T13:27:28;5.50;88.40
48579;DHT22;34357;51.948;6.132;2023-12-14T13:29:55;5.60;88.70
48579;DHT22;34357;51.948;6.132;2023-12-14T13:32:20;5.60;88.60
48579;DHT22;34357;51.948;6.132;2023-12-14T13:34:46;5.50;87.90
48579;DHT22;34357;51.948;6.132;2023-12-14T13:37:12;5.50;87.80
48579;DHT22;34357;51.948;6.132;2023-12-14T13:39:38;5.60;87.80
48579;DHT22;34357;51.948;6.132;2023-12-14T13:42:07;5.60;87.90
48579;DHT22;34357;51.948;6.132;2023-12-14T13:44:33;5.50;87.70
48579;DHT22;34357;51.948;6.132;2023-12-14T13:47:01;5.50;87.90
48579;DHT22;34357;51.948;6.132;2023-12-14T13:49:27;5.60;88.10
48579;DHT22;34357;51.948;6.132;2023-12-14T13:51:53;5.60;87.80
48579;DHT22;34357;51.948;6.132;2023-12-14T13:54:18;5.60;87.70
48579;DHT22;34357;51.948;6.132;2023-12-14T13:56:44;5.70;87.90
48579;DHT22;34357;51.948;6.132;2023-12-14T13:59:10;5.60;87.80
48579;DHT22;34357;51.948;6.132;2023-12-14T14:01:36;5.50;87.60
48579;DHT22;34357;51.948;6.132;2023-12-14T14:04:02;5.40;87.50
48579;DHT22;34357;51.948;6.132;2023-12-14T14:06:28;5.40;87.90
48579;DHT22;34357;51.948;6.132;2023-12-14T14:08:53;5.50;87.90
48579;DHT22;34357;51.948;6.132;2023-12-14T14:11:21;5.50;88.00
48579;DHT22;34357;51.948;6.132;2023-12-14T14:13:46;5.60;88.00
48579;DHT22;34357;51.948;6.132;2023-12-14T14:16:12;5.60;87.50
48579;DHT22;34357;51.948;6.132;2023-12-14T14:18:38;5.60;87.40
48579;DHT22;34357;51.948;6.132;2023-12-14T14:21:04;5.60;87.30
48579;DHT22;34357;51.948;6.132;2023-12-14T14:23:34;5.60;87.70
48579;DHT22;34357;51.948;6.132;2023-12-14T14:26:00;5.60;87.90
48579;DHT22;34357;51.948;6.132;2023-12-14T14:28:26;5.50;87.90
48579;DHT22;34357;51.948;6.132;2023-12-14T14:30:52;5.50;88.10
48579;DHT22;34357;51.948;6.132;2023-12-14T14:33:17;5.40;88.10
48579;DHT22;34357;51.948;6.132;2023-12-14T14:35:47;5.40;88.10
48579;DHT22;34357;51.948;6.132;2023-12-14T14:38:13;5.40;88.50
48579;DHT22;34357;51.948;6.132;2023-12-14T14:40:39;5.30;88.60
48579;DHT22;34357;51.948;6.132;2023-12-14T14:43:08;5.40;88.60
48579;DHT22;34357;51.948;6.132;2023-12-14T14:45:35;5.40;88.80
48579;DHT22;34357;51.948;6.132;2023-12-14T14:48:03;5.40;88.70
48579;DHT22;34357;51.948;6.132;2023-12-14T14:50:31;5.40;88.90
48579;DHT22;34357;51.948;6.132;2023-12-14T14:52:58;5.40;89.00
48579;DHT22;34357;51.948;6.132;2023-12-14T14:55:24;5.40;88.90
48579;DHT22;34357;51.948;6.132;2023-12-14T14:57:51;5.40;88.70
48579;DHT22;34357;51.948;6.132;2023-12-14T15:00:17;5.40;88.60
48579;DHT22;34357;51.948;6.132;2023-12-14T15:02:43;5.40;88.80
48579;DHT22;34357;51.948;6.132;2023-12-14T15:05:09;5.40;88.70
48579;DHT22;34357;51.948;6.132;2023-12-14T15:07:36;5.40;88.80
48579;DHT22;34357;51.948;6.132;2023-12-14T15:10:02;5.40;88.90
48579;DHT22;34357;51.948;6.132;2023-12-14T15:12:28;5.40;88.80
48579;DHT22;34357;51.948;6.132;2023-12-14T15:14:54;5.30;88.80
48579;DHT22;34357;51.948;6.132;2023-12-14T15:17:21;5.20;88.90
48579;DHT22;34357;51.948;6.132;2023-12-14T15:19:48;5.30;88.70
48579;DHT22;34357;51.948;6.132;2023-12-14T15:22:18;5.20;88.70
48579;DHT22;34357;51.948;6.132;2023-12-14T15:24:43;5.00;88.80
48579;DHT22;34357;51.948;6.132;2023-12-14T15:27:09;4.90;88.60
48579;DHT22;34357;51.948;6.132;2023-12-14T15:29:35;4.80;88.80
48579;DHT22;34357;51.948;6.132;2023-12-14T15:32:01;4.70;88.90
48579;DHT22;34357;51.948;6.132;2023-12-14T15:34:27;4.60;88.90
48579;DHT22;34357;51.948;6.132;2023-12-14T15:36:53;4.50;89.20
48579;DHT22;34357;51.948;6.132;2023-12-14T15:39:19;4.40;89.50
48579;DHT22;34357;51.948;6.132;2023-12-14T15:41:44;4.50;89.70
48579;DHT22;34357;51.948;6.132;2023-12-14T15:44:10;4.50;89.80
48579;DHT22;34357;51.948;6.132;2023-12-14T15:46:36;4.50;89.90